sensor_id;sensor_type;location;lat;lon;timestamp;P1;durP1;ratioP1;P2;durP2;ratioP2
28607;SDS011;15802;45.654;13.804;2023-01-29T00:00:01;17.05;;;7.32;;
28607;SDS011;15802;45.654;13.804;2023-01-29T00:02:35;14.63;;;7.50;;
28607;SDS011;15802;45.654;13.804;2023-01-29T00:05:01;14.40;;;7.95;;
28607;SDS011;15802;45.654;13.804;2023-01-29T00:07:28;15.40;;;7.80;;
28607;SDS011;15802;45.654;13.804;2023-01-29T00:09:54;15.82;;;8.23;;
28607;SDS011;15802;45.654;13.804;2023-01-29T00:12:20;17.55;;;7.93;;
28607;SDS011;15802;45.654;13.804;2023-01-29T00:14:46;13.07;;;7.15;;
28607;SDS011;15802;45.654;13.804;2023-01-29T00:17:11;14.18;;;7.70;;
28607;SDS011;15802;45.654;13.804;2023-01-29T00:19:37;12.48;;;7.00;;
28607;SDS011;15802;45.654;13.804;2023-01-29T00:22:03;14.40;;;7.95;;
28607;SDS011;15802;45.654;13.804;2023-01-29T00:24:29;15.90;;;7.53;;
28607;SDS011;15802;45.654;13.804;2023-01-29T00:26:55;13.52;;;7.45;;
28607;SDS011;15802;45.654;13.804;2023-01-29T00:29:21;14.80;;;7.47;;
28607;SDS011;15802;45.654;13.804;2023-01-29T00:31:46;13.75;;;7.35;;
28607;SDS011;15802;45.654;13.804;2023-01-29T00:34:12;13.70;;;7.68;;
28607;SDS011;15802;45.654;13.804;2023-01-29T00:36:38;15.35;;;8.13;;
28607;SDS011;15802;45.654;13.804;2023-01-29T00:39:04;13.85;;;7.60;;
28607;SDS011;15802;45.654;13.804;2023-01-29T00:41:35;14.57;;;7.05;;
28607;SDS011;15802;45.654;13.804;2023-01-29T00:44:20;12.55;;;6.10;;
28607;SDS011;15802;45.654;13.804;2023-01-29T00:47:07;13.90;;;7.05;;
28607;SDS011;15802;45.654;13.804;2023-01-29T00:49:55;14.18;;;7.40;;
28607;SDS011;15802;45.654;13.804;2023-01-29T00:52:22;12.82;;;7.25;;
28607;SDS011;15802;45.654;13.804;2023-01-29T00:54:48;13.38;;;7.00;;
28607;SDS011;15802;45.654;13.804;2023-01-29T00:57:14;14.40;;;7.47;;
28607;SDS011;15802;45.654;13.804;2023-01-29T00:59:40;14.45;;;7.60;;
28607;SDS011;15802;45.654;13.804;2023-01-29T01:02:07;13.98;;;7.47;;
28607;SDS011;15802;45.654;13.804;2023-01-29T01:04:51;18.38;;;8.63;;
28607;SDS011;15802;45.654;13.804;2023-01-29T01:07:17;14.90;;;7.30;;
28607;SDS011;15802;45.654;13.804;2023-01-29T01:09:43;13.75;;;8.00;;
28607;SDS011;15802;45.654;13.804;2023-01-29T01:12:28;14.35;;;7.57;;
28607;SDS011;15802;45.654;13.804;2023-01-29T01:14:54;15.65;;;8.23;;
28607;SDS011;15802;45.654;13.804;2023-01-29T01:17:20;16.08;;;8.40;;
28607;SDS011;15802;45.654;13.804;2023-01-29T01:19:46;14.98;;;8.20;;
28607;SDS011;15802;45.654;13.804;2023-01-29T01:22:11;14.02;;;7.07;;
28607;SDS011;15802;45.654;13.804;2023-01-29T01:24:37;12.85;;;6.97;;
28607;SDS011;15802;45.654;13.804;2023-01-29T01:27:04;16.77;;;7.95;;
28607;SDS011;15802;45.654;13.804;2023-01-29T01:29:30;12.93;;;7.45;;
28607;SDS011;15802;45.654;13.804;2023-01-29T01:31:56;14.07;;;6.88;;
28607;SDS011;15802;45.654;13.804;2023-01-29T01:34:22;14.55;;;7.38;;
28607;SDS011;15802;45.654;13.804;2023-01-29T01:36:48;14.20;;;7.32;;
28607;SDS011;15802;45.654;13.804;2023-01-29T01:39:14;11.73;;;6.65;;
28607;SDS011;15802;45.654;13.804;2023-01-29T01:41:40;14.10;;;6.97;;
28607;SDS011;15802;45.654;13.804;2023-01-29T01:44:06;15.35;;;7.35;;
28607;SDS011;15802;45.654;13.804;2023-01-29T01:46:52;14.50;;;7.40;;
28607;SDS011;15802;45.654;13.804;2023-01-29T01:49:18;15.18;;;7.53;;
28607;SDS011;15802;45.654;13.804;2023-01-29T01:51:46;15.55;;;7.43;;
28607;SDS011;15802;45.654;13.804;2023-01-29T01:54:17;15.05;;;7.72;;
28607;SDS011;15802;45.654;13.804;2023-01-29T01:56:50;14.88;;;7.93;;
28607;SDS011;15802;45.654;13.804;2023-01-29T01:59:29;14.40;;;7.20;;
28607;SDS011;15802;45.654;13.804;2023-01-29T02:01:57;12.30;;;6.40;;
28607;SDS011;15802;45.654;13.804;2023-01-29T02:04:24;12.98;;;7.22;;
28607;SDS011;15802;45.654;13.804;2023-01-29T02:07:10;13.15;;;7.07;;
28607;SDS011;15802;45.654;13.804;2023-01-29T02:09:59;15.13;;;7.55;;
28607;SDS011;15802;45.654;13.804;2023-01-29T02:12:32;13.60;;;7.03;;
28607;SDS011;15802;45.654;13.804;2023-01-29T02:14:59;14.82;;;7.72;;
28607;SDS011;15802;45.654;13.804;2023-01-29T02:17:24;13.38;;;7.60;;
28607;SDS011;15802;45.654;13.804;2023-01-29T02:19:57;12.15;;;6.78;;
28607;SDS011;15802;45.654;13.804;2023-01-29T02:25:46;14.55;;;7.28;;
28607;SDS011;15802;45.654;13.804;2023-01-29T02:28:36;13.27;;;7.15;;
28607;SDS011;15802;45.654;13.804;2023-01-29T02:31:24;13.40;;;6.60;;
28607;SDS011;15802;45.654;13.804;2023-01-29T02:34:03;14.60;;;7.05;;
28607;SDS011;15802;45.654;13.804;2023-01-29T02:37:02;12.25;;;6.25;;
28607;SDS011;15802;45.654;13.804;2023-01-29T02:39:36;18.00;;;6.97;;
28607;SDS011;15802;45.654;13.804;2023-01-29T02:42:17;14.30;;;7.25;;
28607;SDS011;15802;45.654;13.804;2023-01-29T02:45:03;14.52;;;7.43;;
28607;SDS011;15802;45.654;13.804;2023-01-29T02:47:53;17.13;;;7.97;;
28607;SDS011;15802;45.654;13.804;2023-01-29T02:50:25;14.73;;;7.55;;
28607;SDS011;15802;45.654;13.804;2023-01-29T02:53:03;14.93;;;7.30;;
28607;SDS011;15802;45.654;13.804;2023-01-29T02:55:37;16.05;;;7.55;;
28607;SDS011;15802;45.654;13.804;2023-01-29T02:58:12;17.50;;;7.70;;
28607;SDS011;15802;45.654;13.804;2023-01-29T03:00:46;16.23;;;8.07;;
28607;SDS011;15802;45.654;13.804;2023-01-29T03:03:15;14.40;;;8.10;;
28607;SDS011;15802;45.654;13.804;2023-01-29T03:08:33;15.80;;;8.02;;
28607;SDS011;15802;45.654;13.804;2023-01-29T03:11:08;14.32;;;7.55;;
28607;SDS011;15802;45.654;13.804;2023-01-29T03:13:50;14.52;;;8.73;;
28607;SDS011;15802;45.654;13.804;2023-01-29T03:16:24;17.38;;;8.32;;
28607;SDS011;15802;45.654;13.804;2023-01-29T03:18:59;14.35;;;7.63;;
28607;SDS011;15802;45.654;13.804;2023-01-29T03:21:30;16.52;;;8.30;;
28607;SDS011;15802;45.654;13.804;2023-01-29T03:24:18;14.07;;;7.88;;
28607;SDS011;15802;45.654;13.804;2023-01-29T03:27:09;16.90;;;8.07;;
28607;SDS011;15802;45.654;13.804;2023-01-29T03:29:56;16.90;;;8.05;;
28607;SDS011;15802;45.654;13.804;2023-01-29T03:32:42;17.38;;;8.48;;
28607;SDS011;15802;45.654;13.804;2023-01-29T03:35:11;15.52;;;7.97;;
28607;SDS011;15802;45.654;13.804;2023-01-29T03:38:01;15.45;;;8.23;;
28607;SDS011;15802;45.654;13.804;2023-01-29T03:40:30;15.70;;;8.15;;
28607;SDS011;15802;45.654;13.804;2023-01-29T03:43:07;14.45;;;7.43;;
28607;SDS011;15802;45.654;13.804;2023-01-29T03:45:59;16.30;;;7.97;;
28607;SDS011;15802;45.654;13.804;2023-01-29T03:48:55;14.80;;;7.72;;
28607;SDS011;15802;45.654;13.804;2023-01-29T03:51:45;13.68;;;7.25;;
28607;SDS011;15802;45.654;13.804;2023-01-29T03:54:22;15.63;;;7.38;;
28607;SDS011;15802;45.654;13.804;2023-01-29T03:56:57;14.43;;;7.28;;
28607;SDS011;15802;45.654;13.804;2023-01-29T03:59:40;13.48;;;7.18;;
28607;SDS011;15802;45.654;13.804;2023-01-29T04:02:19;14.48;;;7.70;;
28607;SDS011;15802;45.654;13.804;2023-01-29T04:04:52;14.88;;;7.63;;
28607;SDS011;15802;45.654;13.804;2023-01-29T04:07:22;16.02;;;8.00;;
28607;SDS011;15802;45.654;13.804;2023-01-29T04:09:50;13.52;;;7.35;;
28607;SDS011;15802;45.654;13.804;2023-01-29T04:12:23;13.63;;;7.82;;
28607;SDS011;15802;45.654;13.804;2023-01-29T04:14:52;13.60;;;7.22;;
28607;SDS011;15802;45.654;13.804;2023-01-29T04:17:22;15.05;;;8.02;;
28607;SDS011;15802;45.654;13.804;2023-01-29T04:19:57;15.05;;;8.13;;
28607;SDS011;15802;45.654;13.804;2023-01-29T04:22:29;16.38;;;8.30;;
28607;SDS011;15802;45.654;13.804;2023-01-29T04:24:57;15.05;;;8.43;;
28607;SDS011;15802;45.654;13.804;2023-01-29T04:27:38;16.15;;;8.77;;
28607;SDS011;15802;45.654;13.804;2023-01-29T04:33:27;15.80;;;8.45;;
28607;SDS011;15802;45.654;13.804;2023-01-29T04:36:12;14.63;;;7.57;;
28607;SDS011;15802;45.654;13.804;2023-01-29T04:39:17;15.55;;;7.47;;
28607;SDS011;15802;45.654;13.804;2023-01-29T04:41:59;13.98;;;8.00;;
28607;SDS011;15802;45.654;13.804;2023-01-29T04:47:58;15.88;;;8.20;;
28607;SDS011;15802;45.654;13.804;2023-01-29T04:50:43;12.43;;;7.15;;
28607;SDS011;15802;45.654;13.804;2023-01-29T04:53:15;15.18;;;8.07;;
28607;SDS011;15802;45.654;13.804;2023-01-29T04:55:53;13.20;;;7.03;;
28607;SDS011;15802;45.654;13.804;2023-01-29T04:58:29;12.98;;;7.10;;
28607;SDS011;15802;45.654;13.804;2023-01-29T05:01:00;20.95;;;7.80;;
28607;SDS011;15802;45.654;13.804;2023-01-29T05:03:31;12.68;;;7.18;;
28607;SDS011;15802;45.654;13.804;2023-01-29T05:05:59;14.50;;;7.63;;
28607;SDS011;15802;45.654;13.804;2023-01-29T05:08:27;16.30;;;7.45;;
28607;SDS011;15802;45.654;13.804;2023-01-29T05:10:54;12.63;;;7.00;;
28607;SDS011;15802;45.654;13.804;2023-01-29T05:13:23;13.98;;;7.38;;
28607;SDS011;15802;45.654;13.804;2023-01-29T05:15:53;12.43;;;6.70;;
28607;SDS011;15802;45.654;13.804;2023-01-29T05:18:39;16.90;;;7.40;;
28607;SDS011;15802;45.654;13.804;2023-01-29T05:21:06;14.00;;;6.93;;
28607;SDS011;15802;45.654;13.804;2023-01-29T05:23:33;13.60;;;7.63;;
28607;SDS011;15802;45.654;13.804;2023-01-29T05:25:59;12.60;;;6.57;;
28607;SDS011;15802;45.654;13.804;2023-01-29T05:28:25;13.57;;;7.43;;
28607;SDS011;15802;45.654;13.804;2023-01-29T05:30:52;13.55;;;6.90;;
28607;SDS011;15802;45.654;13.804;2023-01-29T05:33:21;14.02;;;6.97;;
28607;SDS011;15802;45.654;13.804;2023-01-29T05:35:50;13.82;;;7.38;;
28607;SDS011;15802;45.654;13.804;2023-01-29T05:38:18;13.93;;;7.53;;
28607;SDS011;15802;45.654;13.804;2023-01-29T05:40:44;14.15;;;7.47;;
28607;SDS011;15802;45.654;13.804;2023-01-29T05:43:13;12.75;;;7.00;;
28607;SDS011;15802;45.654;13.804;2023-01-29T05:45:42;14.32;;;7.40;;
28607;SDS011;15802;45.654;13.804;2023-01-29T05:48:08;14.65;;;6.95;;
28607;SDS011;15802;45.654;13.804;2023-01-29T05:50:34;14.80;;;7.43;;
28607;SDS011;15802;45.654;13.804;2023-01-29T05:53:00;14.73;;;7.07;;
28607;SDS011;15802;45.654;13.804;2023-01-29T05:55:26;12.55;;;6.90;;
28607;SDS011;15802;45.654;13.804;2023-01-29T05:57:53;14.45;;;7.45;;
28607;SDS011;15802;45.654;13.804;2023-01-29T06:00:20;13.38;;;7.47;;
28607;SDS011;15802;45.654;13.804;2023-01-29T06:02:46;14.55;;;7.18;;
28607;SDS011;15802;45.654;13.804;2023-01-29T06:05:12;13.30;;;6.95;;
28607;SDS011;15802;45.654;13.804;2023-01-29T06:07:38;12.52;;;7.20;;
28607;SDS011;15802;45.654;13.804;2023-01-29T06:10:09;13.67;;;7.27;;
28607;SDS011;15802;45.654;13.804;2023-01-29T06:12:36;14.77;;;7.47;;
28607;SDS011;15802;45.654;13.804;2023-01-29T06:15:02;12.20;;;7.05;;
28607;SDS011;15802;45.654;13.804;2023-01-29T06:17:28;13.38;;;7.30;;
28607;SDS011;15802;45.654;13.804;2023-01-29T06:19:54;12.68;;;7.05;;
28607;SDS011;15802;45.654;13.804;2023-01-29T06:22:20;11.35;;;6.25;;
28607;SDS011;15802;45.654;13.804;2023-01-29T06:24:46;11.82;;;6.78;;
28607;SDS011;15802;45.654;13.804;2023-01-29T06:27:12;12.65;;;6.97;;
28607;SDS011;15802;45.654;13.804;2023-01-29T06:29:37;12.73;;;6.75;;
28607;SDS011;15802;45.654;13.804;2023-01-29T06:32:04;14.20;;;7.13;;
28607;SDS011;15802;45.654;13.804;2023-01-29T06:34:30;12.88;;;6.97;;
28607;SDS011;15802;45.654;13.804;2023-01-29T06:36:55;13.10;;;7.45;;
28607;SDS011;15802;45.654;13.804;2023-01-29T06:39:21;13.57;;;7.28;;
28607;SDS011;15802;45.654;13.804;2023-01-29T06:41:47;12.30;;;6.40;;
28607;SDS011;15802;45.654;13.804;2023-01-29T06:44:13;11.55;;;6.47;;
28607;SDS011;15802;45.654;13.804;2023-01-29T06:46:39;11.70;;;6.82;;
28607;SDS011;15802;45.654;13.804;2023-01-29T06:49:05;12.57;;;6.53;;
28607;SDS011;15802;45.654;13.804;2023-01-29T06:51:31;14.45;;;7.22;;
28607;SDS011;15802;45.654;13.804;2023-01-29T06:56:30;13.45;;;6.78;;
28607;SDS011;15802;45.654;13.804;2023-01-29T06:58:56;12.45;;;6.43;;
28607;SDS011;15802;45.654;13.804;2023-01-29T07:01:21;12.50;;;6.82;;
28607;SDS011;15802;45.654;13.804;2023-01-29T07:03:48;14.10;;;6.53;;
28607;SDS011;15802;45.654;13.804;2023-01-29T07:06:15;12.63;;;6.93;;
28607;SDS011;15802;45.654;13.804;2023-01-29T07:08:41;15.63;;;7.15;;
28607;SDS011;15802;45.654;13.804;2023-01-29T07:11:07;12.00;;;6.50;;
28607;SDS011;15802;45.654;13.804;2023-01-29T07:13:33;12.23;;;6.72;;
28607;SDS011;15802;45.654;13.804;2023-01-29T07:15:59;14.13;;;6.55;;
28607;SDS011;15802;45.654;13.804;2023-01-29T07:18:27;13.57;;;6.95;;
28607;SDS011;15802;45.654;13.804;2023-01-29T07:20:53;13.05;;;7.00;;
28607;SDS011;15802;45.654;13.804;2023-01-29T07:23:19;12.85;;;6.57;;
28607;SDS011;15802;45.654;13.804;2023-01-29T07:25:46;10.73;;;6.10;;
28607;SDS011;15802;45.654;13.804;2023-01-29T07:28:14;11.20;;;6.22;;
28607;SDS011;15802;45.654;13.804;2023-01-29T07:30:41;12.40;;;6.40;;
28607;SDS011;15802;45.654;13.804;2023-01-29T07:33:07;10.85;;;6.45;;
28607;SDS011;15802;45.654;13.804;2023-01-29T07:35:35;13.63;;;6.68;;
28607;SDS011;15802;45.654;13.804;2023-01-29T07:38:03;10.95;;;5.78;;
28607;SDS011;15802;45.654;13.804;2023-01-29T07:40:29;11.90;;;6.53;;
28607;SDS011;15802;45.654;13.804;2023-01-29T07:42:58;10.57;;;5.88;;
28607;SDS011;15802;45.654;13.804;2023-01-29T07:45:25;10.85;;;6.28;;
28607;SDS011;15802;45.654;13.804;2023-01-29T07:47:52;13.35;;;6.57;;
28607;SDS011;15802;45.654;13.804;2023-01-29T07:50:19;11.85;;;6.60;;
28607;SDS011;15802;45.654;13.804;2023-01-29T07:52:46;11.60;;;6.45;;
28607;SDS011;15802;45.654;13.804;2023-01-29T07:55:12;12.38;;;6.47;;
28607;SDS011;15802;45.654;13.804;2023-01-29T07:57:38;12.50;;;6.00;;
28607;SDS011;15802;45.654;13.804;2023-01-29T08:00:04;11.82;;;6.50;;
28607;SDS011;15802;45.654;13.804;2023-01-29T08:02:30;12.75;;;6.30;;
28607;SDS011;15802;45.654;13.804;2023-01-29T08:04:56;11.52;;;6.20;;
28607;SDS011;15802;45.654;13.804;2023-01-29T08:07:22;10.90;;;6.40;;
28607;SDS011;15802;45.654;13.804;2023-01-29T08:09:48;12.68;;;6.28;;
28607;SDS011;15802;45.654;13.804;2023-01-29T08:12:14;12.55;;;6.18;;
28607;SDS011;15802;45.654;13.804;2023-01-29T08:14:39;10.60;;;5.78;;
28607;SDS011;15802;45.654;13.804;2023-01-29T08:17:05;11.65;;;6.13;;
28607;SDS011;15802;45.654;13.804;2023-01-29T08:19:31;10.50;;;6.13;;
28607;SDS011;15802;45.654;13.804;2023-01-29T08:21:57;11.63;;;6.18;;
28607;SDS011;15802;45.654;13.804;2023-01-29T08:24:23;10.20;;;6.00;;
28607;SDS011;15802;45.654;13.804;2023-01-29T08:26:49;11.02;;;5.93;;
28607;SDS011;15802;45.654;13.804;2023-01-29T08:29:15;9.63;;;5.95;;
28607;SDS011;15802;45.654;13.804;2023-01-29T08:31:41;13.30;;;6.80;;
28607;SDS011;15802;45.654;13.804;2023-01-29T08:34:06;12.18;;;6.20;;
28607;SDS011;15802;45.654;13.804;2023-01-29T08:36:32;11.38;;;6.20;;
28607;SDS011;15802;45.654;13.804;2023-01-29T08:38:59;10.50;;;5.93;;
28607;SDS011;15802;45.654;13.804;2023-01-29T08:41:26;9.02;;;5.70;;
28607;SDS011;15802;45.654;13.804;2023-01-29T08:43:52;10.38;;;5.97;;
28607;SDS011;15802;45.654;13.804;2023-01-29T08:46:21;10.25;;;5.15;;
28607;SDS011;15802;45.654;13.804;2023-01-29T08:48:48;10.43;;;6.35;;
28607;SDS011;15802;45.654;13.804;2023-01-29T08:51:14;11.18;;;5.85;;
28607;SDS011;15802;45.654;13.804;2023-01-29T08:53:39;11.48;;;6.13;;
28607;SDS011;15802;45.654;13.804;2023-01-29T08:56:05;9.27;;;5.22;;
28607;SDS011;15802;45.654;13.804;2023-01-29T08:58:31;9.43;;;5.85;;
28607;SDS011;15802;45.654;13.804;2023-01-29T09:01:05;10.07;;;5.78;;
28607;SDS011;15802;45.654;13.804;2023-01-29T09:03:33;12.02;;;5.90;;
28607;SDS011;15802;45.654;13.804;2023-01-29T09:06:00;9.30;;;5.40;;
28607;SDS011;15802;45.654;13.804;2023-01-29T09:08:26;9.30;;;5.57;;
28607;SDS011;15802;45.654;13.804;2023-01-29T09:10:52;8.65;;;5.32;;
28607;SDS011;15802;45.654;13.804;2023-01-29T09:13:18;9.60;;;5.00;;
28607;SDS011;15802;45.654;13.804;2023-01-29T09:15:44;9.95;;;5.75;;
28607;SDS011;15802;45.654;13.804;2023-01-29T09:18:10;10.95;;;5.38;;
28607;SDS011;15802;45.654;13.804;2023-01-29T09:20:36;10.80;;;5.75;;
28607;SDS011;15802;45.654;13.804;2023-01-29T09:23:03;9.93;;;5.68;;
28607;SDS011;15802;45.654;13.804;2023-01-29T09:25:30;11.13;;;5.47;;
28607;SDS011;15802;45.654;13.804;2023-01-29T09:27:59;9.00;;;5.40;;
28607;SDS011;15802;45.654;13.804;2023-01-29T09:30:25;9.60;;;5.20;;
28607;SDS011;15802;45.654;13.804;2023-01-29T09:32:53;9.23;;;5.07;;
28607;SDS011;15802;45.654;13.804;2023-01-29T09:35:21;8.90;;;5.10;;
28607;SDS011;15802;45.654;13.804;2023-01-29T09:37:48;9.95;;;5.20;;
28607;SDS011;15802;45.654;13.804;2023-01-29T09:40:21;9.65;;;5.07;;
28607;SDS011;15802;45.654;13.804;2023-01-29T09:42:54;9.10;;;5.07;;
28607;SDS011;15802;45.654;13.804;2023-01-29T09:45:25;9.85;;;5.72;;
28607;SDS011;15802;45.654;13.804;2023-01-29T09:47:57;9.38;;;5.00;;
28607;SDS011;15802;45.654;13.804;2023-01-29T09:50:31;8.95;;;4.95;;
28607;SDS011;15802;45.654;13.804;2023-01-29T09:53:19;12.77;;;5.20;;
28607;SDS011;15802;45.654;13.804;2023-01-29T09:56:04;9.98;;;5.43;;
28607;SDS011;15802;45.654;13.804;2023-01-29T09:58:38;9.68;;;5.05;;
28607;SDS011;15802;45.654;13.804;2023-01-29T10:01:11;9.70;;;5.05;;
28607;SDS011;15802;45.654;13.804;2023-01-29T10:04:17;8.77;;;4.75;;
28607;SDS011;15802;45.654;13.804;2023-01-29T10:07:11;8.80;;;4.93;;
28607;SDS011;15802;45.654;13.804;2023-01-29T10:10:05;8.73;;;4.93;;
28607;SDS011;15802;45.654;13.804;2023-01-29T10:15:43;7.50;;;4.50;;
28607;SDS011;15802;45.654;13.804;2023-01-29T10:18:37;8.00;;;4.50;;
28607;SDS011;15802;45.654;13.804;2023-01-29T10:24:09;8.75;;;4.38;;
28607;SDS011;15802;45.654;13.804;2023-01-29T10:26:57;6.65;;;3.95;;
28607;SDS011;15802;45.654;13.804;2023-01-29T10:29:25;7.82;;;4.10;;
28607;SDS011;15802;45.654;13.804;2023-01-29T10:31:54;7.22;;;4.05;;
28607;SDS011;15802;45.654;13.804;2023-01-29T10:34:38;7.47;;;3.88;;
28607;SDS011;15802;45.654;13.804;2023-01-29T10:37:13;6.32;;;3.42;;
28607;SDS011;15802;45.654;13.804;2023-01-29T10:39:43;6.32;;;3.80;;
28607;SDS011;15802;45.654;13.804;2023-01-29T10:42:20;6.05;;;3.47;;
28607;SDS011;15802;45.654;13.804;2023-01-29T10:45:07;6.70;;;3.67;;
28607;SDS011;15802;45.654;13.804;2023-01-29T10:48:08;6.10;;;3.70;;
28607;SDS011;15802;45.654;13.804;2023-01-29T10:51:05;7.35;;;3.75;;
28607;SDS011;15802;45.654;13.804;2023-01-29T10:54:05;5.35;;;3.20;;
28607;SDS011;15802;45.654;13.804;2023-01-29T10:56:55;6.38;;;3.63;;
28607;SDS011;15802;45.654;13.804;2023-01-29T11:02:32;8.98;;;4.32;;
28607;SDS011;15802;45.654;13.804;2023-01-29T11:04:58;6.18;;;3.80;;
28607;SDS011;15802;45.654;13.804;2023-01-29T11:07:24;7.75;;;3.80;;
28607;SDS011;15802;45.654;13.804;2023-01-29T11:10:09;9.05;;;4.65;;
28607;SDS011;15802;45.654;13.804;2023-01-29T11:12:38;6.30;;;3.92;;
28607;SDS011;15802;45.654;13.804;2023-01-29T11:15:15;6.22;;;3.90;;
28607;SDS011;15802;45.654;13.804;2023-01-29T11:20:35;8.02;;;4.50;;
28607;SDS011;15802;45.654;13.804;2023-01-29T11:23:01;8.10;;;3.80;;
28607;SDS011;15802;45.654;13.804;2023-01-29T11:25:27;7.93;;;3.63;;
28607;SDS011;15802;45.654;13.804;2023-01-29T11:27:58;7.32;;;4.47;;
28607;SDS011;15802;45.654;13.804;2023-01-29T11:30:29;6.72;;;3.92;;
28607;SDS011;15802;45.654;13.804;2023-01-29T11:35:31;6.72;;;3.78;;
28607;SDS011;15802;45.654;13.804;2023-01-29T11:40:45;5.60;;;3.45;;
28607;SDS011;15802;45.654;13.804;2023-01-29T11:43:22;8.45;;;3.58;;
28607;SDS011;15802;45.654;13.804;2023-01-29T11:45:59;5.40;;;3.28;;
28607;SDS011;15802;45.654;13.804;2023-01-29T11:48:32;6.65;;;3.45;;
28607;SDS011;15802;45.654;13.804;2023-01-29T11:51:10;6.20;;;3.35;;
28607;SDS011;15802;45.654;13.804;2023-01-29T11:53:48;6.85;;;3.72;;
28607;SDS011;15802;45.654;13.804;2023-01-29T11:56:22;6.68;;;3.80;;
28607;SDS011;15802;45.654;13.804;2023-01-29T11:58:56;7.22;;;3.95;;
28607;SDS011;15802;45.654;13.804;2023-01-29T12:01:28;7.43;;;4.03;;
28607;SDS011;15802;45.654;13.804;2023-01-29T12:04:00;6.63;;;3.75;;
28607;SDS011;15802;45.654;13.804;2023-01-29T12:06:32;5.75;;;3.33;;
28607;SDS011;15802;45.654;13.804;2023-01-29T12:09:01;5.85;;;3.60;;
28607;SDS011;15802;45.654;13.804;2023-01-29T12:11:34;7.80;;;3.53;;
28607;SDS011;15802;45.654;13.804;2023-01-29T12:14:01;5.47;;;3.70;;
28607;SDS011;15802;45.654;13.804;2023-01-29T12:16:35;6.68;;;3.28;;
28607;SDS011;15802;45.654;13.804;2023-01-29T12:22:09;6.45;;;3.60;;
28607;SDS011;15802;45.654;13.804;2023-01-29T12:28:22;7.82;;;4.10;;
28607;SDS011;15802;45.654;13.804;2023-01-29T12:33:52;7.82;;;4.07;;
28607;SDS011;15802;45.654;13.804;2023-01-29T12:36:27;8.90;;;4.32;;
28607;SDS011;15802;45.654;13.804;2023-01-29T12:39:00;6.65;;;3.85;;
28607;SDS011;15802;45.654;13.804;2023-01-29T12:41:29;6.18;;;3.97;;
28607;SDS011;15802;45.654;13.804;2023-01-29T12:44:17;7.38;;;4.30;;
28607;SDS011;15802;45.654;13.804;2023-01-29T12:46:49;8.48;;;4.38;;
28607;SDS011;15802;45.654;13.804;2023-01-29T12:49:24;7.40;;;4.10;;
28607;SDS011;15802;45.654;13.804;2023-01-29T12:51:56;5.65;;;3.67;;
28607;SDS011;15802;45.654;13.804;2023-01-29T12:54:32;6.88;;;4.10;;
28607;SDS011;15802;45.654;13.804;2023-01-29T12:57:06;5.80;;;3.72;;
28607;SDS011;15802;45.654;13.804;2023-01-29T12:59:39;6.22;;;3.65;;
28607;SDS011;15802;45.654;13.804;2023-01-29T13:02:15;7.13;;;4.30;;
28607;SDS011;15802;45.654;13.804;2023-01-29T13:05:14;8.63;;;4.40;;
28607;SDS011;15802;45.654;13.804;2023-01-29T13:07:46;8.00;;;4.28;;
28607;SDS011;15802;45.654;13.804;2023-01-29T13:10:20;7.38;;;4.35;;
28607;SDS011;15802;45.654;13.804;2023-01-29T13:12:56;8.35;;;4.35;;
28607;SDS011;15802;45.654;13.804;2023-01-29T13:15:30;7.40;;;4.10;;
28607;SDS011;15802;45.654;13.804;2023-01-29T13:18:09;6.43;;;3.97;;
28607;SDS011;15802;45.654;13.804;2023-01-29T13:20:56;7.68;;;4.07;;
28607;SDS011;15802;45.654;13.804;2023-01-29T13:23:33;7.70;;;4.22;;
28607;SDS011;15802;45.654;13.804;2023-01-29T13:26:06;8.90;;;4.47;;
28607;SDS011;15802;45.654;13.804;2023-01-29T13:28:31;7.72;;;4.20;;
28607;SDS011;15802;45.654;13.804;2023-01-29T13:33:52;7.32;;;3.90;;
28607;SDS011;15802;45.654;13.804;2023-01-29T13:36:42;8.40;;;4.70;;
28607;SDS011;15802;45.654;13.804;2023-01-29T13:41:57;8.75;;;4.65;;
28607;SDS011;15802;45.654;13.804;2023-01-29T13:44:32;6.82;;;4.15;;
28607;SDS011;15802;45.654;13.804;2023-01-29T13:47:03;7.53;;;4.10;;
28607;SDS011;15802;45.654;13.804;2023-01-29T13:49:34;8.18;;;4.07;;
28607;SDS011;15802;45.654;13.804;2023-01-29T13:55:02;6.05;;;3.83;;
28607;SDS011;15802;45.654;13.804;2023-01-29T13:57:33;7.00;;;4.13;;
28607;SDS011;15802;45.654;13.804;2023-01-29T14:03:39;6.93;;;4.10;;
28607;SDS011;15802;45.654;13.804;2023-01-29T14:06:06;8.05;;;4.55;;
28607;SDS011;15802;45.654;13.804;2023-01-29T14:08:38;8.90;;;4.95;;
28607;SDS011;15802;45.654;13.804;2023-01-29T14:13:59;9.05;;;4.90;;
28607;SDS011;15802;45.654;13.804;2023-01-29T14:16:26;7.15;;;4.03;;
28607;SDS011;15802;45.654;13.804;2023-01-29T14:18:59;8.65;;;4.78;;
28607;SDS011;15802;45.654;13.804;2023-01-29T14:21:27;8.45;;;4.43;;
28607;SDS011;15802;45.654;13.804;2023-01-29T14:24:07;8.45;;;4.35;;
28607;SDS011;15802;45.654;13.804;2023-01-29T14:26:43;8.07;;;4.50;;
28607;SDS011;15802;45.654;13.804;2023-01-29T14:31:57;7.53;;;4.25;;
28607;SDS011;15802;45.654;13.804;2023-01-29T14:34:35;7.43;;;4.30;;
28607;SDS011;15802;45.654;13.804;2023-01-29T14:37:18;8.57;;;4.97;;
28607;SDS011;15802;45.654;13.804;2023-01-29T14:39:53;7.80;;;4.38;;
28607;SDS011;15802;45.654;13.804;2023-01-29T14:42:23;7.85;;;4.45;;
28607;SDS011;15802;45.654;13.804;2023-01-29T14:44:57;7.38;;;4.30;;
28607;SDS011;15802;45.654;13.804;2023-01-29T14:50:39;9.95;;;4.72;;
28607;SDS011;15802;45.654;13.804;2023-01-29T14:53:10;7.50;;;4.45;;
28607;SDS011;15802;45.654;13.804;2023-01-29T14:55:57;8.98;;;4.32;;
28607;SDS011;15802;45.654;13.804;2023-01-29T14:58:32;9.77;;;4.78;;
28607;SDS011;15802;45.654;13.804;2023-01-29T15:01:05;7.55;;;4.60;;
28607;SDS011;15802;45.654;13.804;2023-01-29T15:03:42;8.13;;;4.82;;
28607;SDS011;15802;45.654;13.804;2023-01-29T15:09:01;7.70;;;3.70;;
28607;SDS011;15802;45.654;13.804;2023-01-29T15:11:37;7.60;;;4.30;;
28607;SDS011;15802;45.654;13.804;2023-01-29T15:14:21;7.47;;;4.40;;
28607;SDS011;15802;45.654;13.804;2023-01-29T15:17:01;9.70;;;4.45;;
28607;SDS011;15802;45.654;13.804;2023-01-29T15:19:42;7.38;;;4.30;;
28607;SDS011;15802;45.654;13.804;2023-01-29T15:22:11;8.25;;;4.35;;
28607;SDS011;15802;45.654;13.804;2023-01-29T15:24:40;7.97;;;4.47;;
28607;SDS011;15802;45.654;13.804;2023-01-29T15:27:10;8.18;;;4.68;;
28607;SDS011;15802;45.654;13.804;2023-01-29T15:29:39;9.88;;;5.07;;
28607;SDS011;15802;45.654;13.804;2023-01-29T15:32:11;9.77;;;5.30;;
28607;SDS011;15802;45.654;13.804;2023-01-29T15:34:44;7.95;;;4.70;;
28607;SDS011;15802;45.654;13.804;2023-01-29T15:37:27;10.65;;;5.00;;
28607;SDS011;15802;45.654;13.804;2023-01-29T15:39:55;9.55;;;5.22;;
28607;SDS011;15802;45.654;13.804;2023-01-29T15:42:22;8.95;;;4.88;;
28607;SDS011;15802;45.654;13.804;2023-01-29T15:44:51;9.48;;;4.90;;
28607;SDS011;15802;45.654;13.804;2023-01-29T15:47:19;8.40;;;5.28;;
28607;SDS011;15802;45.654;13.804;2023-01-29T15:49:49;11.40;;;5.25;;
28607;SDS011;15802;45.654;13.804;2023-01-29T15:52:17;9.77;;;5.07;;
28607;SDS011;15802;45.654;13.804;2023-01-29T15:54:47;9.15;;;5.30;;
28607;SDS011;15802;45.654;13.804;2023-01-29T15:57:18;11.93;;;5.57;;
28607;SDS011;15802;45.654;13.804;2023-01-29T15:59:47;9.00;;;5.07;;